This is the latest recevied weather packets stored in our database for station/object SK4BW-10. If no packets are shown the sender has not sent any weather packets the latest 10 day(s).
| Time | Temp. | Humidity | Pressure | Rain* | Wind** | Luminosity | Snow |
|---|---|---|---|---|---|---|---|
| 1778040867 | 0.56° C | 55% | 1011.2 hPa | - | - | - | - |
| 1778039967 | 0.56° C | 54% | 1011.2 hPa | - | - | - | - |
| 1778039066 | 0° C | 56% | 1011 hPa | - | - | - | - |
| 1778038165 | 0° C | 57% | 1010.9 hPa | - | - | - | - |
| 1778037263 | 0° C | 58% | 1010.9 hPa | - | - | - | - |
| 1778036363 | -0.56° C | 59% | 1010.7 hPa | - | - | - | - |
| 1778035462 | -0.56° C | 59% | 1010.7 hPa | - | - | - | - |
| 1778034561 | -0.56° C | 59% | 1010.7 hPa | - | - | - | - |
| 1778033660 | -0.56° C | 59% | 1010.6 hPa | - | - | - | - |
| 1778032759 | 0° C | 57% | 1010.5 hPa | - | - | - | - |
| 1778031858 | -0.56° C | 58% | 1010.4 hPa | - | - | - | - |
| 1778030957 | -0.56° C | 59% | 1010.3 hPa | - | - | - | - |
| 1778030056 | -0.56° C | 60% | 1010.4 hPa | - | - | - | - |
| 1778029155 | -0.56° C | 59% | 1010.2 hPa | - | - | - | - |
| 1778028255 | -0.56° C | 60% | 1010.1 hPa | - | - | - | - |
| 1778027354 | 0.56° C | 56% | 1010.1 hPa | - | - | - | - |
| 1778026453 | 0.56° C | 56% | 1009.9 hPa | - | - | - | - |
| 1778025552 | 0.56° C | 55% | 1009.8 hPa | - | - | - | - |
| 1778024652 | 0.56° C | 57% | 1009.9 hPa | - | - | - | - |
| 1778023751 | 0.56° C | 55% | 1009.9 hPa | - | - | - | - |
| 1778022850 | 1.11° C | 55% | 1009.8 hPa | - | - | - | - |
| 1778021949 | 1.11° C | 54% | 1009.7 hPa | - | - | - | - |
| 1778021049 | 0.56° C | 56% | 1009.6 hPa | - | - | - | - |
| 1778020148 | 0.56° C | 56% | 1009.5 hPa | - | - | - | - |
| 1778019246 | 0.56° C | 60% | 1009.5 hPa | - | - | - | - |
* Rain since midnight (hover to see other rain measurements)
** Current wind speed in m/s (hover to see current wind gust speed)